Terminal Aerodrome Forecast
Issued by NWS

Home | Current Version | Previous Version | Graphics & Text | Print | Product List | Glossary On
Versions: 1 2 3 4 5 6 7 8 9 10 11 12 13 14 15 16 17 18 19 20 21 22 23 24 25 26 27 28 29 30 31 32 33 34 35 36 37 38 39 40 41 42 43 44
000
FTUS43 KGRB 250500
TAFRHI
TAF
KRHI 250531Z 2506/2606 29010KT 4SM -SN OVC012
      TEMPO 2506/2509 1 1/2SM -SN SCT007 BKN015
     FM251000 29006KT P6SM -SN OVC015
     FM251600 28006KT P6SM BKN025 OVC050
     FM252000 27007KT P6SM FEW030 SCT100
     FM252300 23003KT P6SM FEW100=

USA.gov is the U.S. government's official web portal to all federal, state and local government web resources and services.